Time;durP1;ratioP1;P1;durP2;ratioP2;P2;SDS_P1;SDS_P2;PMS_P1;PMS_P2;Temp;Humidity;BMP_temperature;BMP_pressure;BME280_temperature;BME280_humidity;BME280_pressure;Samples;Min_cycle;Max_cycle;Signal;HPM_P1;HPM_P2
2021/07/31 03:31:53;;;;;;;4.50;2.20;;;17.10;99.70;;;;;;5052771;28;20177;-67
2021/07/31 03:34:21;;;;;;;3.60;1.83;;;17.10;99.70;;;;;;5051699;28;20754;-67
2021/07/31 03:36:51;;;;;;;6.40;1.90;;;17.10;99.70;;;;;;5052408;28;20448;-67
2021/07/31 03:39:19;;;;;;;3.30;1.80;;;17.10;99.70;;;;;;5052160;28;20447;-68
2021/07/31 03:41:46;;;;;;;2.53;1.77;;;17.10;99.70;;;;;;5052469;28;20454;-67
2021/07/31 03:44:12;;;;;;;2.90;1.70;;;17.10;99.70;;;;;;5051596;28;20447;-67
2021/07/31 03:46:42;;;;;;;3.70;1.70;;;17.10;99.70;;;;;;5052333;28;20474;-67
2021/07/31 03:49:10;;;;;;;3.27;1.70;;;17.10;99.70;;;;;;5052142;28;20451;-67
2021/07/31 03:51:37;;;;;;;4.23;2.10;;;17.00;99.70;;;;;;5052167;28;20476;-67
2021/07/31 03:54:04;;;;;;;2.90;1.73;;;17.00;99.70;;;;;;5051618;28;20444;-67
2021/07/31 03:56:30;;;;;;;2.53;1.70;;;17.00;99.70;;;;;;5051127;28;20448;-67
2021/07/31 03:58:57;;;;;;;2.97;1.80;;;16.90;99.70;;;;;;5051961;28;20454;-67
2021/07/31 04:01:24;;;;;;;2.90;1.90;;;16.90;99.70;;;;;;5051956;28;20458;-68
2021/07/31 04:03:51;;;;;;;5.07;1.70;;;16.90;99.70;;;;;;5051627;28;20451;-67
2021/07/31 04:06:19;;;;;;;3.43;1.93;;;16.90;99.70;;;;;;5051614;28;20513;-67
2021/07/31 04:08:46;;;;;;;2.87;1.70;;;16.90;99.70;;;;;;5051977;28;20463;-67
2021/07/31 04:11:13;;;;;;;4.10;2.00;;;16.90;99.70;;;;;;5051663;28;20443;-67
2021/07/31 04:13:39;;;;;;;2.30;1.50;;;16.90;99.70;;;;;;5051964;28;20451;-67
2021/07/31 04:16:07;;;;;;;2.70;1.40;;;16.90;99.70;;;;;;5050531;28;20904;-67
2021/07/31 04:18:34;;;;;;;22.57;2.43;;;17.00;99.70;;;;;;5051863;28;20764;-67
2021/07/31 04:21:05;;;;;;;2.47;1.73;;;16.90;99.70;;;;;;5051350;28;20447;-67
2021/07/31 04:23:33;;;;;;;2.17;1.57;;;16.90;99.70;;;;;;5051636;28;20870;-67
2021/07/31 04:26:00;;;;;;;2.93;1.70;;;16.80;99.70;;;;;;5050957;28;20444;-67
2021/07/31 04:28:27;;;;;;;3.63;1.80;;;16.70;99.70;;;;;;5051500;28;20468;-67
2021/07/31 04:30:53;;;;;;;2.93;1.63;;;16.70;99.70;;;;;;5051205;28;20447;-67
2021/07/31 04:33:20;;;;;;;1.93;1.40;;;16.70;99.70;;;;;;5051272;28;20452;-67
2021/07/31 04:35:47;;;;;;;2.30;1.60;;;16.70;99.70;;;;;;5050748;28;20476;-67
2021/07/31 04:38:14;;;;;;;2.50;1.50;;;16.60;99.70;;;;;;5051282;28;20566;-68
2021/07/31 04:40:42;;;;;;;3.23;1.53;;;16.60;99.70;;;;;;5051047;28;20450;-67
2021/07/31 04:43:09;;;;;;;3.03;1.63;;;16.70;99.70;;;;;;5051232;28;20805;-67
2021/07/31 04:45:35;;;;;;;3.67;1.70;;;16.80;99.70;;;;;;5050594;28;20440;-67
2021/07/31 04:48:02;;;;;;;1.90;1.50;;;16.90;99.70;;;;;;5051084;28;20471;-67
2021/07/31 04:50:29;;;;;;;1.93;1.50;;;17.10;99.70;;;;;;5051051;28;21024;-68
2021/07/31 04:52:55;;;;;;;4.10;1.80;;;17.20;99.70;;;;;;5050793;28;20481;-67
2021/07/31 04:55:22;;;;;;;3.07;1.70;;;17.30;99.70;;;;;;5050060;28;21017;-67
2021/07/31 04:57:50;;;;;;;2.70;1.60;;;17.20;99.70;;;;;;5050759;28;20470;-68
2021/07/31 05:00:17;;;;;;;2.87;1.50;;;17.10;99.70;;;;;;5050946;28;20439;-67
2021/07/31 05:02:44;;;;;;;2.13;1.50;;;17.20;99.70;;;;;;5050589;28;20440;-67
2021/07/31 05:05:11;;;;;;;3.17;1.53;;;17.30;99.70;;;;;;5050550;28;20521;-67
2021/07/31 05:07:38;;;;;;;2.73;1.60;;;17.30;99.70;;;;;;5050501;28;20464;-67
2021/07/31 05:10:05;;;;;;;2.20;1.40;;;17.40;99.70;;;;;;5050113;28;20440;-67
2021/07/31 05:12:32;;;;;;;2.50;1.70;;;17.40;99.70;;;;;;5050390;28;20444;-68
2021/07/31 05:15:00;;;;;;;4.00;1.80;;;17.40;99.70;;;;;;5049747;28;20541;-67
2021/07/31 05:17:27;;;;;;;4.57;1.73;;;17.50;99.70;;;;;;5050251;28;20464;-67
2021/07/31 05:19:53;;;;;;;2.50;1.70;;;17.50;99.70;;;;;;5050849;28;20448;-67
2021/07/31 05:22:20;;;;;;;2.90;1.93;;;17.50;99.70;;;;;;5050197;28;20502;-68
2021/07/31 05:24:53;;;;;;;4.80;1.80;;;17.50;99.70;;;;;;5050171;28;20439;-67
2021/07/31 05:27:20;;;;;;;2.10;1.40;;;17.50;99.70;;;;;;5050162;28;20570;-67
2021/07/31 05:29:46;;;;;;;2.30;1.67;;;17.70;99.70;;;;;;5050468;28;20844;-68
2021/07/31 05:32:14;;;;;;;2.23;1.60;;;17.70;99.70;;;;;;5050101;28;20497;-67
2021/07/31 05:34:41;;;;;;;2.30;1.50;;;17.80;99.70;;;;;;5049723;28;20452;-67
2021/07/31 05:39:35;;;;;;;2.33;1.60;;;17.90;99.70;;;;;;5027712;28;20959;-64
2021/07/31 05:42:05;;;;;;;2.50;1.60;;;18.00;99.70;;;;;;5033416;28;20441;-64
2021/07/31 05:44:31;;;;;;;2.60;1.60;;;18.20;99.70;;;;;;5033429;28;20959;-63
2021/07/31 05:46:58;;;;;;;2.87;1.67;;;18.30;99.70;;;;;;5034460;28;20448;-64
2021/07/31 05:49:29;;;;;;;3.03;1.57;;;18.50;99.70;;;;;;5033998;28;20461;-64
2021/07/31 05:51:56;;;;;;;2.23;1.50;;;18.50;99.70;;;;;;5035367;28;20452;-64
2021/07/31 05:54:22;;;;;;;2.63;1.47;;;18.50;99.70;;;;;;5034446;28;20440;-66
2021/07/31 05:56:50;;;;;;;2.47;1.57;;;18.50;99.70;;;;;;5034768;28;20472;-64
2021/07/31 05:59:16;;;;;;;3.00;1.73;;;18.40;99.70;;;;;;5033796;28;20567;-63
2021/07/31 06:01:43;;;;;;;3.67;1.73;;;18.50;99.70;;;;;;5031840;28;20449;-63
2021/07/31 06:04:10;;;;;;;3.27;1.60;;;18.60;99.70;;;;;;5031766;28;20445;-65
2021/07/31 06:06:38;;;;;;;2.53;1.60;;;18.60;99.70;;;;;;5032471;28;20448;-63
2021/07/31 06:09:04;;;;;;;2.73;1.60;;;18.60;99.70;;;;;;5031505;28;20915;-63
2021/07/31 06:11:31;;;;;;;3.80;1.97;;;18.70;99.70;;;;;;5032832;28;20444;-64
2021/07/31 06:13:58;;;;;;;2.47;1.70;;;18.70;99.70;;;;;;5032122;28;20444;-65
2021/07/31 06:16:25;;;;;;;2.37;1.73;;;18.80;99.70;;;;;;5033400;28;20902;-63
2021/07/31 06:18:51;;;;;;;2.50;1.50;;;18.60;99.70;;;;;;5033056;28;21018;-64
2021/07/31 06:21:18;;;;;;;3.20;1.70;;;18.80;99.70;;;;;;5036496;28;20994;-64
2021/07/31 06:23:46;;;;;;;2.70;1.63;;;19.20;99.70;;;;;;5037227;28;20885;-64
2021/07/31 06:26:13;;;;;;;3.23;1.60;;;19.70;99.70;;;;;;5036500;28;20875;-65
2021/07/31 06:28:40;;;;;;;2.80;1.73;;;20.40;99.70;;;;;;5036910;28;20479;-64
2021/07/31 06:31:08;;;;;;;2.37;1.90;;;21.20;99.70;;;;;;5036286;28;20443;-65
2021/07/31 06:33:34;;;;;;;3.60;1.90;;;21.70;99.70;;;;;;5035517;28;20436;-65
2021/07/31 06:36:01;;;;;;;2.83;1.57;;;21.80;99.70;;;;;;5036031;28;20859;-65
2021/07/31 06:38:28;;;;;;;2.97;1.60;;;22.30;99.70;;;;;;5036325;28;20229;-65
2021/07/31 06:40:56;;;;;;;2.33;1.42;;;22.80;99.70;;;;;;5037275;28;20208;-64
2021/07/31 06:43:22;;;;;;;3.22;1.80;;;23.10;99.70;;;;;;5037259;28;20259;-64
2021/07/31 06:45:49;;;;;;;4.07;1.63;;;23.90;98.80;;;;;;5037911;28;20259;-65
2021/07/31 06:48:16;;;;;;;2.10;1.50;;;23.70;99.20;;;;;;5038005;28;20661;-64
2021/07/31 06:50:42;;;;;;;2.00;1.65;;;23.50;96.60;;;;;;5038176;28;20575;-64
2021/07/31 06:53:09;;;;;;;2.10;1.50;;;23.10;98.50;;;;;;5037537;28;20201;-64
2021/07/31 06:55:35;;;;;;;2.67;1.60;;;22.80;99.40;;;;;;5036762;28;20228;-64
2021/07/31 06:58:03;;;;;;;2.42;1.70;;;22.70;99.70;;;;;;5036526;28;20217;-64
2021/07/31 07:00:30;;;;;;;2.28;1.50;;;23.10;99.70;;;;;;5037052;28;20204;-63
2021/07/31 07:02:57;;;;;;;1.70;1.30;;;24.10;96.90;;;;;;5037320;28;20673;-64
2021/07/31 07:05:23;;;;;;;1.80;1.50;;;24.70;94.80;;;;;;5037908;28;20224;-64
2021/07/31 07:07:50;;;;;;;2.30;1.40;;;25.00;95.00;;;;;;5038282;28;20225;-65
2021/07/31 07:10:17;;;;;;;2.45;1.70;;;25.00;94.70;;;;;;5037940;28;20206;-65
2021/07/31 07:12:44;;;;;;;2.47;1.75;;;25.40;92.20;;;;;;5036004;28;20217;-65
2021/07/31 07:15:12;;;;;;;2.15;1.45;;;25.40;92.50;;;;;;5035222;28;20287;-64
2021/07/31 07:17:39;;;;;;;2.45;1.70;;;25.10;93.10;;;;;;5035110;28;20228;-63
2021/07/31 07:20:07;;;;;;;2.47;1.60;;;25.00;92.30;;;;;;5035183;28;20582;-62
2021/07/31 07:22:34;;;;;;;2.30;1.50;;;24.80;93.00;;;;;;5035204;28;20228;-65
2021/07/31 07:25:00;;;;;;;2.47;1.70;;;24.00;95.60;;;;;;5035092;28;20227;-65
2021/07/31 07:27:27;;;;;;;2.30;1.67;;;23.50;95.90;;;;;;5035856;28;20228;-65
2021/07/31 07:29:54;;;;;;;2.10;1.47;;;23.60;97.20;;;;;;5036400;28;20197;-64
2021/07/31 07:32:22;;;;;;;2.40;1.70;;;23.10;99.60;;;;;;5035261;28;20456;-62
2021/07/31 07:34:49;;;;;;;2.70;1.80;;;23.60;97.60;;;;;;5035949;28;20440;-64
2021/07/31 07:37:15;;;;;;;2.20;1.70;;;22.70;98.90;;;;;;5035970;28;20488;-64
2021/07/31 07:39:42;;;;;;;2.47;1.63;;;22.70;99.70;;;;;;5035988;28;20834;-64
2021/07/31 07:42:09;;;;;;;3.30;2.00;;;22.80;99.70;;;;;;5036546;28;20444;-64
2021/07/31 07:44:36;;;;;;;3.47;1.70;;;22.60;99.70;;;;;;5034809;28;20943;-63
2021/07/31 07:47:03;;;;;;;3.50;1.80;;;22.20;99.70;;;;;;5035687;28;20451;-64
2021/07/31 07:49:31;;;;;;;3.63;1.87;;;22.30;99.70;;;;;;5028642;28;20468;-63
2021/07/31 07:51:57;;;;;;;3.37;1.83;;;22.00;99.70;;;;;;5037164;28;20440;-63
2021/07/31 07:54:24;;;;;;;3.20;1.50;;;21.70;99.70;;;;;;5019625;28;20453;-63
2021/07/31 07:56:51;;;;;;;2.80;1.63;;;21.70;99.70;;;;;;5016951;28;20481;-63
2021/07/31 07:59:17;;;;;;;2.60;1.57;;;21.70;99.70;;;;;;5016440;28;20465;-64
2021/07/31 08:01:44;;;;;;;2.90;2.00;;;21.70;99.70;;;;;;5015622;28;21014;-64
2021/07/31 08:04:11;;;;;;;2.67;1.70;;;21.90;98.70;;;;;;5015189;28;20852;-64
2021/07/31 08:06:39;;;;;;;2.20;1.60;;;21.60;99.60;;;;;;5016487;28;20444;-64
2021/07/31 08:09:05;;;;;;;1.60;1.20;;;21.80;99.70;;;;;;5015727;28;20984;-64
2021/07/31 08:11:32;;;;;;;2.87;1.63;;;21.80;99.70;;;;;;5015312;28;20924;-63
2021/07/31 08:13:59;;;;;;;2.73;1.70;;;21.40;99.30;;;;;;5015025;28;20456;-64
2021/07/31 08:16:26;;;;;;;1.70;1.40;;;21.00;99.70;;;;;;5014899;28;20485;-64
2021/07/31 08:18:53;;;;;;;2.60;1.57;;;21.30;99.70;;;;;;5019101;28;20476;-63
2021/07/31 08:21:20;;;;;;;2.27;1.30;;;21.30;99.70;;;;;;5035133;28;20824;-64
2021/07/31 08:23:48;;;;;;;2.37;1.70;;;21.40;99.60;;;;;;5034253;28;20452;-62
2021/07/31 08:26:15;;;;;;;3.83;1.73;;;21.30;99.10;;;;;;5034770;28;20969;-65
2021/07/31 08:28:42;;;;;;;2.27;1.50;;;21.20;98.60;;;;;;5034161;28;20908;-65
2021/07/31 08:31:09;;;;;;;3.87;1.80;;;21.30;99.70;;;;;;5035594;28;20444;-64
2021/07/31 08:33:37;;;;;;;3.37;1.90;;;21.30;99.70;;;;;;5029040;28;20865;-65
2021/07/31 08:36:04;;;;;;;5.97;2.40;;;21.20;99.70;;;;;;5034566;28;20477;-65
2021/07/31 08:38:31;;;;;;;2.67;1.87;;;21.20;99.70;;;;;;5024972;28;21087;-65
2021/07/31 08:40:59;;;;;;;4.80;2.40;;;21.20;99.30;;;;;;5032191;28;20453;-64
2021/07/31 08:43:26;;;;;;;5.67;2.40;;;21.30;99.10;;;;;;5031726;28;20492;-68
2021/07/31 08:45:53;;;;;;;3.80;2.27;;;21.30;99.70;;;;;;5022047;28;20491;-64
2021/07/31 08:48:26;;;;;;;4.77;2.40;;;21.30;99.70;;;;;;5035415;28;20522;-64
2021/07/31 08:50:57;;;;;;;4.83;1.70;;;21.60;99.70;;;;;;5029382;28;20472;-64
2021/07/31 08:53:25;;;;;;;2.97;1.67;;;21.70;99.70;;;;;;5018875;28;20500;-65
2021/07/31 08:55:52;;;;;;;4.37;1.80;;;21.70;99.70;;;;;;5015462;28;20857;-63
2021/07/31 08:58:23;;;;;;;4.20;1.83;;;21.60;99.70;;;;;;5020935;28;20464;-63
2021/07/31 09:00:49;;;;;;;2.53;1.70;;;21.60;98.60;;;;;;5035009;28;20441;-64
2021/07/31 09:03:17;;;;;;;2.20;1.53;;;21.70;99.40;;;;;;5034722;28;20444;-66
2021/07/31 09:05:44;;;;;;;2.80;1.70;;;21.90;98.70;;;;;;5034101;28;20441;-64
2021/07/31 09:08:11;;;;;;;3.00;1.90;;;21.80;99.40;;;;;;5034749;28;20460;-65
2021/07/31 09:10:39;;;;;;;2.90;1.70;;;21.70;99.70;;;;;;5035413;28;20471;-65
2021/07/31 09:13:07;;;;;;;3.07;1.67;;;21.90;99.70;;;;;;5035308;28;20475;-64
2021/07/31 09:15:38;;;;;;;1.80;1.40;;;21.70;98.30;;;;;;5034262;28;20444;-63
2021/07/31 09:18:26;;;;;;;3.20;1.80;;;21.60;97.60;;;;;;5035105;28;20535;-65
2021/07/31 09:21:06;;;;;;;2.53;1.60;;;21.80;99.70;;;;;;5035790;28;20449;-65
2021/07/31 09:23:44;;;;;;;3.13;1.60;;;21.50;98.40;;;;;;5034952;28;20575;-64
2021/07/31 09:26:12;;;;;;;2.07;1.43;;;21.50;99.10;;;;;;5035756;28;20467;-65
2021/07/31 09:28:40;;;;;;;5.30;1.60;;;21.90;98.80;;;;;;5036140;28;20465;-65
2021/07/31 09:31:10;;;;;;;3.17;1.87;;;22.00;97.90;;;;;;5034693;28;20518;-65
2021/07/31 09:33:41;;;;;;;2.40;1.70;;;22.20;97.10;;;;;;5033474;28;20822;-64
2021/07/31 09:36:08;;;;;;;2.83;1.57;;;21.90;96.90;;;;;;5034559;28;20491;-65
2021/07/31 09:38:36;;;;;;;2.37;1.63;;;22.10;95.90;;;;;;5032846;28;20542;-65
2021/07/31 09:41:32;;;;;;;2.10;1.50;;;21.90;95.50;;;;;;5023415;28;20445;-64
2021/07/31 09:44:11;;;;;;;1.93;1.43;;;22.10;93.20;;;;;;5013603;28;20457;-65
2021/07/31 09:46:45;;;;;;;2.00;1.50;;;22.50;96.30;;;;;;5013537;28;20466;-64
2021/07/31 09:49:13;;;;;;;3.10;1.70;;;22.90;93.50;;;;;;5013826;28;20472;-66
2021/07/31 09:51:42;;;;;;;2.10;1.70;;;23.40;91.60;;;;;;5013069;28;20464;-65
2021/07/31 09:54:10;;;;;;;2.47;1.60;;;24.00;92.70;;;;;;5012798;28;20445;-64
2021/07/31 09:56:42;;;;;;;3.03;1.90;;;24.40;90.70;;;;;;5012152;28;20477;-66
2021/07/31 09:59:10;;;;;;;2.40;1.70;;;24.40;88.40;;;;;;5013738;28;20225;-65
2021/07/31 10:01:41;;;;;;;2.47;1.70;;;24.70;88.50;;;;;;5012574;28;20213;-65
2021/07/31 10:04:08;;;;;;;1.80;1.38;;;25.20;88.10;;;;;;5012123;28;20414;-63
2021/07/31 10:06:35;;;;;;;2.33;1.60;;;25.90;85.90;;;;;;5012570;28;20205;-66
2021/07/31 10:09:03;;;;;;;2.08;1.50;;;25.30;87.00;;;;;;5012835;28;20248;-66
2021/07/31 10:11:32;;;;;;;2.08;1.60;;;25.60;87.00;;;;;;5013011;28;20213;-66
2021/07/31 10:14:00;;;;;;;2.50;1.50;;;25.90;87.80;;;;;;5011548;28;20206;-65
2021/07/31 10:16:27;;;;;;;2.83;1.80;;;25.70;85.80;;;;;;5012300;28;20692;-65
2021/07/31 10:19:01;;;;;;;1.80;1.50;;;24.90;87.90;;;;;;5020008;28;20232;-64
2021/07/31 10:21:29;;;;;;;2.77;1.67;;;25.00;88.80;;;;;;5020605;28;20639;-66
2021/07/31 10:24:00;;;;;;;1.77;1.40;;;24.90;89.10;;;;;;5012181;28;20494;-65
2021/07/31 10:26:28;;;;;;;3.27;1.73;;;24.70;89.10;;;;;;5012466;28;20198;-65
2021/07/31 10:28:55;;;;;;;2.47;1.60;;;24.60;90.30;;;;;;5013768;28;20497;-66
2021/07/31 10:31:28;;;;;;;2.50;1.87;;;24.60;90.50;;;;;;5027380;28;20456;-65
2021/07/31 10:33:56;;;;;;;2.60;1.70;;;24.70;90.90;;;;;;5012857;28;20503;-65
2021/07/31 10:36:31;;;;;;;2.97;1.70;;;24.60;90.70;;;;;;5024494;28;20480;-65
2021/07/31 10:38:59;;;;;;;2.47;1.63;;;24.30;89.20;;;;;;5033064;28;20479;-66
2021/07/31 10:41:56;;;;;;;2.50;1.60;;;24.40;90.30;;;;;;5032697;28;20523;-64
2021/07/31 10:44:24;;;;;;;2.00;1.40;;;24.30;89.40;;;;;;5016163;28;20955;-64
2021/07/31 10:46:51;;;;;;;2.83;1.50;;;24.20;91.30;;;;;;5029349;28;20455;-65
2021/07/31 10:49:35;;;;;;;4.10;2.20;;;24.10;88.10;;;;;;5031774;28;20577;-65
2021/07/31 10:52:04;;;;;;;4.13;1.80;;;24.10;91.80;;;;;;5032709;28;20436;-64
2021/07/31 10:55:00;;;;;;;3.40;1.50;;;24.20;91.20;;;;;;5020297;28;20440;-64
2021/07/31 10:58:04;;;;;;;3.60;1.90;;;24.10;92.30;;;;;;5012622;28;22421;-64
2021/07/31 11:00:34;;;;;;;4.43;1.80;;;23.70;92.30;;;;;;5021790;28;20530;-65
2021/07/31 11:03:04;;;;;;;3.73;1.97;;;23.60;94.30;;;;;;5028613;28;20846;-64
2021/07/31 11:06:04;;;;;;;3.87;1.83;;;23.40;96.50;;;;;;5022648;28;20450;-65
2021/07/31 11:08:34;;;;;;;2.97;1.50;;;23.20;95.20;;;;;;5027445;28;20462;-63
2021/07/31 11:11:02;;;;;;;2.30;1.70;;;23.00;96.00;;;;;;5030991;28;20485;-63
2021/07/31 11:13:59;;;;;;;2.53;1.70;;;23.10;95.10;;;;;;5028097;28;20444;-63
2021/07/31 11:16:26;;;;;;;2.80;1.50;;;23.20;94.00;;;;;;4944240;29;20449;-64
2021/07/31 11:18:57;;;;;;;2.70;1.60;;;23.10;94.50;;;;;;4998821;28;20852;-64
2021/07/31 11:21:26;;;;;;;2.47;1.50;;;23.20;94.50;;;;;;5016919;28;20487;-65
2021/07/31 11:23:56;;;;;;;3.40;2.00;;;23.10;93.00;;;;;;5015186;28;20456;-65
2021/07/31 11:26:41;;;;;;;1.97;1.47;;;23.30;93.70;;;;;;5015352;28;20449;-63
2021/07/31 11:29:13;;;;;;;2.70;1.67;;;23.40;92.10;;;;;;5015966;28;20465;-64
2021/07/31 11:31:40;;;;;;;2.67;1.80;;;23.40;96.00;;;;;;5019883;28;20440;-65
2021/07/31 11:34:09;;;;;;;2.90;1.73;;;23.50;96.00;;;;;;5032785;28;20471;-64
2021/07/31 11:36:37;;;;;;;3.10;1.90;;;23.60;94.20;;;;;;5025504;28;20485;-63
2021/07/31 11:39:07;;;;;;;3.00;1.60;;;23.50;92.00;;;;;;5014879;28;20748;-64
2021/07/31 11:41:42;;;;;;;3.00;1.60;;;23.50;95.20;;;;;;5064096;23;20480;-68
2021/07/31 11:44:10;;;;;;;4.43;1.80;;;23.30;94.40;;;;;;5029437;28;20444;-68
2021/07/31 11:46:39;;;;;;;4.10;1.83;;;23.40;94.60;;;;;;5031764;28;20444;-68
2021/07/31 11:49:08;;;;;;;3.27;1.97;;;23.40;94.20;;;;;;5017615;28;20445;-69
2021/07/31 11:51:42;;;;;;;3.43;1.77;;;23.50;90.90;;;;;;5011418;28;20465;-69
2021/07/31 11:54:11;;;;;;;3.60;1.67;;;23.40;90.40;;;;;;5011354;28;20472;-67
2021/07/31 11:56:39;;;;;;;3.60;1.90;;;23.30;89.00;;;;;;5015303;28;20451;-68
2021/07/31 11:59:06;;;;;;;2.70;1.93;;;23.20;92.50;;;;;;5023735;28;20503;-68
2021/07/31 12:01:34;;;;;;;3.00;1.83;;;23.20;91.90;;;;;;5030488;28;20472;-69
2021/07/31 12:04:01;;;;;;;3.40;1.93;;;23.00;93.20;;;;;;5030861;28;20440;-69
2021/07/31 12:06:39;;;;;;;2.90;1.80;;;23.00;95.90;;;;;;5031058;28;20452;-68
2021/07/31 12:09:21;;;;;;;3.50;1.80;;;22.90;95.20;;;;;;5027564;28;20447;-68
2021/07/31 12:11:52;;;;;;;3.50;1.63;;;23.00;94.40;;;;;;5026411;28;20979;-69
2021/07/31 12:14:37;;;;;;;3.60;1.80;;;22.90;91.30;;;;;;5030859;28;20433;-68
2021/07/31 12:17:23;;;;;;;3.53;1.70;;;23.00;92.40;;;;;;5029728;28;20495;-68
2021/07/31 12:19:53;;;;;;;2.57;1.60;;;23.10;93.40;;;;;;5031057;28;20441;-69
2021/07/31 12:22:22;;;;;;;2.40;1.50;;;23.20;93.70;;;;;;5030526;28;20835;-68
2021/07/31 12:25:11;;;;;;;2.73;1.80;;;23.20;92.30;;;;;;5030592;28;20444;-68
2021/07/31 12:27:57;;;;;;;2.60;1.70;;;23.20;92.70;;;;;;5028744;28;20432;-68
2021/07/31 12:30:29;;;;;;;3.03;1.77;;;23.00;90.60;;;;;;5029938;28;20448;-69
2021/07/31 12:33:03;;;;;;;2.93;1.80;;;23.10;92.20;;;;;;5027941;28;20464;-68
2021/07/31 12:35:36;;;;;;;3.60;2.20;;;23.00;91.60;;;;;;5030887;28;20543;-68
2021/07/31 12:38:05;;;;;;;2.90;1.73;;;23.00;91.90;;;;;;5029847;28;20926;-69
2021/07/31 12:40:32;;;;;;;2.47;1.60;;;23.20;90.80;;;;;;5030830;28;20469;-68
2021/07/31 12:43:01;;;;;;;2.40;1.67;;;23.30;91.30;;;;;;5029895;28;20464;-68
2021/07/31 12:45:28;;;;;;;2.30;1.60;;;23.30;90.70;;;;;;5026148;28;20449;-68
2021/07/31 12:47:55;;;;;;;2.20;1.50;;;23.20;90.40;;;;;;5030530;28;20444;-68
2021/07/31 12:50:22;;;;;;;2.90;1.70;;;23.10;94.40;;;;;;5030361;28;20445;-68
2021/07/31 12:52:49;;;;;;;2.70;1.60;;;23.10;94.70;;;;;;5030570;28;20469;-68
2021/07/31 12:55:16;;;;;;;2.20;1.50;;;23.20;93.40;;;;;;5029614;28;20448;-68
2021/07/31 12:57:42;;;;;;;2.07;1.50;;;23.40;90.10;;;;;;5030237;28;21050;-68
2021/07/31 13:00:12;;;;;;;3.50;2.40;;;23.30;90.60;;;;;;5029889;28;20448;-68
2021/07/31 13:02:39;;;;;;;4.00;1.70;;;23.30;91.50;;;;;;5029973;28;20472;-68
2021/07/31 13:05:06;;;;;;;2.80;1.70;;;23.30;90.60;;;;;;5027433;28;20473;-68
2021/07/31 13:07:33;;;;;;;2.50;1.67;;;23.30;90.30;;;;;;5030151;28;20437;-68
2021/07/31 13:10:00;;;;;;;2.30;1.60;;;23.40;94.00;;;;;;5029432;28;20931;-68
2021/07/31 13:12:26;;;;;;;3.80;2.00;;;23.30;93.80;;;;;;5022196;28;20473;-68
2021/07/31 13:14:53;;;;;;;2.60;1.80;;;23.20;94.30;;;;;;5024371;28;20826;-68
2021/07/31 13:17:21;;;;;;;2.77;1.70;;;23.30;91.10;;;;;;5029638;28;20504;-69
2021/07/31 13:19:48;;;;;;;2.90;1.90;;;23.50;91.00;;;;;;5030333;28;20951;-68
2021/07/31 13:22:15;;;;;;;2.90;1.80;;;23.50;91.60;;;;;;5029761;28;20468;-68
2021/07/31 13:24:41;;;;;;;5.50;1.97;;;23.50;91.90;;;;;;5029630;28;20452;-68
2021/07/31 13:27:09;;;;;;;2.97;1.77;;;23.80;90.40;;;;;;5029524;28;20503;-68
2021/07/31 13:29:36;;;;;;;2.30;1.57;;;23.90;92.20;;;;;;5029578;28;20451;-68
2021/07/31 13:32:03;;;;;;;3.43;2.00;;;23.90;91.20;;;;;;5029868;28;20464;-68
2021/07/31 13:34:32;;;;;;;3.40;2.07;;;23.90;93.00;;;;;;5029460;28;20445;-68
2021/07/31 13:37:00;;;;;;;3.07;1.70;;;23.80;89.40;;;;;;5029937;28;20963;-69
2021/07/31 13:39:28;;;;;;;2.57;1.63;;;23.90;89.80;;;;;;5029195;28;20808;-69
2021/07/31 13:41:57;;;;;;;2.43;1.63;;;23.90;91.10;;;;;;5028399;28;20479;-68
2021/07/31 13:44:25;;;;;;;2.73;1.70;;;24.00;89.70;;;;;;5027289;28;20476;-69
2021/07/31 13:46:52;;;;;;;3.23;1.60;;;23.90;88.90;;;;;;5029868;28;21017;-68
2021/07/31 13:49:19;;;;;;;2.10;1.60;;;24.00;90.00;;;;;;5026628;28;20459;-69
2021/07/31 13:51:47;;;;;;;2.40;1.60;;;23.90;92.40;;;;;;5022874;28;20472;-69
2021/07/31 13:54:14;;;;;;;2.87;1.77;;;23.80;90.80;;;;;;5028365;28;20838;-68
2021/07/31 13:56:41;;;;;;;2.53;1.77;;;23.80;91.20;;;;;;5013895;28;20449;-68
2021/07/31 13:59:08;;;;;;;2.23;1.63;;;23.60;91.60;;;;;;5009636;28;20477;-68
2021/07/31 14:01:36;;;;;;;2.53;1.80;;;23.50;89.40;;;;;;5021617;28;20460;-68
2021/07/31 14:04:03;;;;;;;2.20;1.60;;;23.50;90.80;;;;;;5029245;28;20538;-68
2021/07/31 14:06:30;;;;;;;3.40;1.70;;;23.50;92.10;;;;;;5029402;28;20467;-68
2021/07/31 14:08:58;;;;;;;2.73;1.83;;;23.40;91.60;;;;;;5029830;28;20448;-69
2021/07/31 14:11:25;;;;;;;2.40;1.47;;;23.50;94.00;;;;;;5029587;28;20471;-68
2021/07/31 14:13:52;;;;;;;3.23;1.80;;;23.40;90.60;;;;;;5029583;28;20471;-68
2021/07/31 14:16:18;;;;;;;3.43;1.73;;;23.50;93.10;;;;;;5028904;28;20467;-68
2021/07/31 14:18:45;;;;;;;3.27;2.00;;;23.60;95.00;;;;;;5029751;28;20542;-68
2021/07/31 14:21:14;;;;;;;2.37;1.73;;;23.60;93.80;;;;;;5029628;28;20468;-68
2021/07/31 14:23:41;;;;;;;2.13;1.60;;;23.60;92.40;;;;;;5029647;28;20449;-69
2021/07/31 14:26:12;;;;;;;4.53;1.60;;;23.70;92.20;;;;;;5029208;28;20436;-68
2021/07/31 14:28:39;;;;;;;2.97;1.60;;;23.70;93.50;;;;;;5029938;28;20471;-69
2021/07/31 14:31:07;;;;;;;3.17;1.77;;;23.70;92.50;;;;;;5029545;28;20468;-68
2021/07/31 14:33:34;;;;;;;2.40;1.77;;;23.50;90.50;;;;;;5029455;28;20448;-68
2021/07/31 14:36:01;;;;;;;2.77;1.83;;;23.40;92.60;;;;;;5029048;28;20713;-68
2021/07/31 14:38:29;;;;;;;2.80;1.80;;;23.30;96.80;;;;;;5029604;28;20845;-68
2021/07/31 14:40:55;;;;;;;3.90;1.77;;;23.20;93.50;;;;;;5029953;28;20436;-68
2021/07/31 14:43:23;;;;;;;2.63;1.67;;;23.20;91.50;;;;;;5032868;28;20539;-68
2021/07/31 14:45:50;;;;;;;5.00;1.80;;;23.10;90.30;;;;;;5033198;28;20448;-68
2021/07/31 14:48:17;;;;;;;3.10;1.70;;;23.20;89.60;;;;;;5033223;28;20981;-68
2021/07/31 14:50:43;;;;;;;3.97;1.90;;;23.10;91.90;;;;;;5033362;28;20476;-68
2021/07/31 14:53:10;;;;;;;2.43;1.80;;;23.10;93.60;;;;;;5033277;28;20521;-68
2021/07/31 14:55:38;;;;;;;3.13;1.90;;;23.10;88.90;;;;;;5032919;28;20437;-68
2021/07/31 14:58:05;;;;;;;2.20;1.60;;;23.00;92.50;;;;;;5033430;28;20508;-68
2021/07/31 15:00:33;;;;;;;2.47;1.70;;;23.00;92.20;;;;;;5033257;28;20444;-68
2021/07/31 15:03:00;;;;;;;3.87;1.83;;;23.00;93.40;;;;;;5032740;28;20477;-68
2021/07/31 15:05:26;;;;;;;3.27;1.90;;;23.00;94.20;;;;;;5032274;28;20448;-68
2021/07/31 15:07:53;;;;;;;2.67;1.70;;;22.90;94.20;;;;;;5033000;28;20437;-68
2021/07/31 15:10:20;;;;;;;3.20;1.80;;;23.00;93.20;;;;;;5032751;28;21063;-69
2021/07/31 15:12:46;;;;;;;2.40;1.70;;;23.00;93.30;;;;;;5032754;28;20476;-68
2021/07/31 15:15:13;;;;;;;3.30;1.70;;;22.90;90.70;;;;;;5032116;28;20452;-68
2021/07/31 15:17:41;;;;;;;3.03;1.83;;;23.00;91.30;;;;;;5032933;28;20444;-68
2021/07/31 15:20:09;;;;;;;4.50;1.90;;;22.90;92.60;;;;;;5032871;28;20827;-68
2021/07/31 15:22:38;;;;;;;5.17;2.10;;;22.80;93.70;;;;;;5032911;28;20464;-67
2021/07/31 15:25:06;;;;;;;4.57;2.20;;;22.80;93.70;;;;;;5032088;28;20527;-68
2021/07/31 15:27:33;;;;;;;4.10;1.93;;;22.80;93.70;;;;;;5032962;28;20445;-68
2021/07/31 15:29:59;;;;;;;3.60;2.20;;;22.90;93.70;;;;;;5032297;28;20978;-68
2021/07/31 15:32:26;;;;;;;3.50;2.03;;;22.90;94.40;;;;;;5032388;28;20461;-68
2021/07/31 15:35:01;;;;;;;2.53;1.73;;;23.00;94.50;;;;;;5031718;28;20978;-68
2021/07/31 15:37:28;;;;;;;7.13;2.00;;;23.10;93.30;;;;;;5032566;28;20474;-68
2021/07/31 15:39:55;;;;;;;2.50;1.53;;;23.20;94.90;;;;;;5032305;28;20480;-68
2021/07/31 15:42:22;;;;;;;3.90;1.80;;;23.10;93.40;;;;;;5032065;28;20477;-68
2021/07/31 15:44:48;;;;;;;3.53;2.00;;;23.00;93.70;;;;;;5031991;28;20447;-68
2021/07/31 15:47:15;;;;;;;2.90;2.00;;;23.00;93.20;;;;;;5032214;28;20963;-67
2021/07/31 15:49:42;;;;;;;2.70;1.63;;;23.10;94.30;;;;;;5031999;28;20507;-68
2021/07/31 15:52:10;;;;;;;3.57;2.13;;;23.10;92.40;;;;;;5031150;28;20488;-68
2021/07/31 15:54:36;;;;;;;4.20;1.90;;;23.10;96.80;;;;;;5031688;28;20826;-68
2021/07/31 15:57:04;;;;;;;4.50;2.20;;;22.90;92.90;;;;;;5031810;28;20440;-68
2021/07/31 15:59:30;;;;;;;2.47;1.70;;;22.90;96.00;;;;;;5032156;28;20480;-68
2021/07/31 16:01:57;;;;;;;3.37;1.97;;;22.90;95.50;;;;;;5031647;28;20475;-68
2021/07/31 16:04:24;;;;;;;3.17;1.80;;;22.90;94.30;;;;;;5031583;28;20459;-68
2021/07/31 16:06:50;;;;;;;3.27;1.70;;;23.00;96.00;;;;;;5031748;28;20445;-68
2021/07/31 16:09:18;;;;;;;2.83;1.90;;;22.90;95.30;;;;;;5031849;28;20974;-68
2021/07/31 16:11:45;;;;;;;2.80;1.80;;;22.90;91.90;;;;;;5031276;28;20472;-68
2021/07/31 16:14:12;;;;;;;2.87;1.80;;;22.80;98.30;;;;;;5031527;28;20468;-67
2021/07/31 16:16:39;;;;;;;2.57;1.90;;;22.70;96.00;;;;;;5031421;28;20883;-68
2021/07/31 16:19:06;;;;;;;3.67;1.93;;;22.60;94.60;;;;;;5031447;28;20489;-68
2021/07/31 16:21:32;;;;;;;2.93;1.80;;;22.60;95.20;;;;;;5031602;28;20465;-68
2021/07/31 16:23:59;;;;;;;3.40;1.97;;;22.50;94.90;;;;;;5031236;28;20445;-68
2021/07/31 16:26:27;;;;;;;3.17;1.93;;;22.50;95.50;;;;;;5031179;28;20445;-68
2021/07/31 16:28:54;;;;;;;2.63;1.67;;;22.50;95.40;;;;;;5031324;28;20483;-68